Time;durP1;ratioP1;P1;durP2;ratioP2;P2;SDS_P1;SDS_P2;PMS_P1;PMS_P2;Temp;Humidity;BMP_temperature;BMP_pressure;BME280_temperature;BME280_humidity;BME280_pressure;Samples;Min_cycle;Max_cycle;Signal;HPM_P1;HPM_P2
2023/04/26 00:08:57;;;;;;;1999.90;999.90;;;5.70;99.90;;;;;;6681700;88;20186;-75
2023/04/26 00:18:58;;;;;;;1999.90;999.90;;;5.50;99.90;;;;;;6685280;88;20200;-76
2023/04/26 00:28:59;;;;;;;1999.90;999.90;;;5.40;99.90;;;;;;6682564;88;20253;-77
2023/04/26 00:38:59;;;;;;;1999.90;999.90;;;5.30;99.90;;;;;;6684362;88;20188;-77
2023/04/26 00:49:00;;;;;;;1999.90;999.90;;;5.10;99.90;;;;;;6691102;88;20178;-76
2023/04/26 00:59:01;;;;;;;1999.90;999.90;;;4.90;99.90;;;;;;6693134;88;20305;-77
2023/04/26 01:09:13;;;;;;;1999.90;999.90;;;5.00;99.90;;;;;;6684664;88;20188;-77
2023/04/26 01:19:15;;;;;;;1999.90;999.90;;;4.90;99.90;;;;;;6680781;88;20227;-77
2023/04/26 01:29:20;;;;;;;1999.90;999.90;;;4.80;99.90;;;;;;6684154;88;20702;-76
2023/04/26 01:39:21;;;;;;;1999.90;999.90;;;4.60;99.90;;;;;;6686304;88;20198;-76
2023/04/26 01:49:22;;;;;;;1999.90;999.90;;;4.60;99.90;;;;;;6683026;88;20225;-78
2023/04/26 01:59:22;;;;;;;1999.90;999.90;;;4.40;99.90;;;;;;6682660;88;20301;-77
2023/04/26 02:09:23;;;;;;;1999.90;999.90;;;4.10;99.90;;;;;;6686495;88;20254;-75
2023/04/26 02:19:24;;;;;;;1999.90;999.90;;;4.00;99.90;;;;;;6683373;88;20701;-76
2023/04/26 02:29:24;;;;;;;1999.90;999.90;;;3.90;99.90;;;;;;6680735;88;20183;-75
2023/04/26 02:39:25;;;;;;;1999.90;999.90;;;3.80;99.90;;;;;;6685333;88;20212;-76
2023/04/26 02:49:25;;;;;;;1999.90;999.90;;;3.70;99.90;;;;;;6683946;88;20550;-76
2023/04/26 03:09:29;;;;;;;1999.90;999.90;;;3.50;99.90;;;;;;6616244;88;20223;-80
2023/04/26 03:19:30;;;;;;;1999.90;999.90;;;3.50;99.90;;;;;;6604744;89;20206;-78
2023/04/26 03:29:31;;;;;;;1999.90;999.90;;;3.60;99.90;;;;;;6603263;89;20334;-79
2023/04/26 03:39:31;;;;;;;1999.90;999.90;;;3.50;99.90;;;;;;6607753;89;20189;-79
2023/04/26 03:49:32;;;;;;;1999.90;999.90;;;3.40;99.90;;;;;;6611284;89;20224;-79
2023/04/26 03:59:32;;;;;;;1999.90;999.90;;;3.10;99.90;;;;;;6605948;89;20219;-80
2023/04/26 04:09:33;;;;;;;1999.90;999.90;;;3.00;99.90;;;;;;6605081;89;20191;-80
2023/04/26 04:19:33;;;;;;;1999.90;999.90;;;2.90;99.90;;;;;;6605069;89;20698;-80
2023/04/26 04:29:34;;;;;;;1999.90;999.90;;;3.00;99.90;;;;;;6605371;89;20193;-80
2023/04/26 04:39:34;;;;;;;1999.90;999.90;;;3.10;99.90;;;;;;6606545;89;20265;-79
2023/04/26 04:49:36;;;;;;;1999.90;999.90;;;2.90;99.90;;;;;;6602853;89;20643;-80
2023/04/26 04:59:38;;;;;;;1999.90;999.90;;;3.00;99.90;;;;;;6607329;89;20227;-80
2023/04/26 05:09:38;;;;;;;1999.90;999.90;;;3.30;99.90;;;;;;6602018;89;20695;-80
2023/04/26 05:19:39;;;;;;;1999.90;999.90;;;3.50;99.90;;;;;;6601973;89;20210;-80
2023/04/26 05:29:40;;;;;;;1999.90;999.90;;;3.80;99.90;;;;;;6598848;89;20217;-78
2023/04/26 05:39:41;;;;;;;1999.90;999.90;;;4.00;99.90;;;;;;6600694;89;20221;-80
2023/04/26 05:49:41;;;;;;;1999.90;999.90;;;4.30;99.90;;;;;;6602169;89;20222;-81
2023/04/26 05:59:43;;;;;;;1999.90;999.90;;;4.80;99.90;;;;;;6611284;89;20256;-80
2023/04/26 06:09:43;;;;;;;1999.90;999.90;;;5.30;99.90;;;;;;6618182;89;20242;-80
2023/04/26 06:19:44;;;;;;;1999.90;999.90;;;5.40;99.90;;;;;;6619854;89;20238;-80
2023/04/26 06:29:45;;;;;;;1999.90;999.90;;;5.90;99.90;;;;;;6615996;88;20228;-78
2023/04/26 06:39:45;;;;;;;1999.90;999.90;;;6.60;99.90;;;;;;6621722;88;20542;-79
2023/04/26 06:49:46;;;;;;;1999.90;999.90;;;6.90;99.90;;;;;;6621512;89;21143;-80
2023/04/26 06:59:46;;;;;;;1999.90;999.90;;;7.10;99.90;;;;;;6628292;89;20223;-78
2023/04/26 07:09:47;;;;;;;1999.90;999.90;;;7.50;99.90;;;;;;6623037;89;20766;-78
2023/04/26 07:19:47;;;;;;;1999.90;999.90;;;8.10;99.90;;;;;;6623626;89;20196;-78
2023/04/26 07:29:52;;;;;;;1999.90;999.90;;;8.60;99.90;;;;;;6625011;89;20202;-81
2023/04/26 07:39:52;;;;;;;1999.90;999.90;;;8.60;99.90;;;;;;6637505;89;20197;-81
2023/04/26 07:49:53;;;;;;;1999.90;999.90;;;9.10;99.90;;;;;;6642486;89;20292;-81
2023/04/26 07:59:54;;;;;;;1999.90;999.90;;;9.10;99.90;;;;;;6628412;88;20303;-81
2023/04/26 08:09:54;;;;;;;1999.90;999.90;;;9.10;99.90;;;;;;6627579;89;20697;-82
2023/04/26 08:19:55;;;;;;;1999.90;999.90;;;8.80;99.90;;;;;;6628824;89;20181;-82
2023/04/26 08:29:55;;;;;;;1999.90;999.90;;;9.70;99.90;;;;;;6631378;89;20199;-82
2023/04/26 08:39:56;;;;;;;1999.90;999.90;;;10.00;99.90;;;;;;6633748;89;20708;-82
2023/04/26 08:50:02;;;;;;;1999.90;999.90;;;10.20;99.90;;;;;;6629416;89;20185;-82
2023/04/26 09:00:14;;;;;;;1999.90;999.90;;;10.90;99.90;;;;;;6633693;88;20219;-83
2023/04/26 09:10:22;;;;;;;1999.90;999.90;;;10.90;99.90;;;;;;6623202;89;20194;-83
2023/04/26 09:20:30;;;;;;;1999.90;999.90;;;11.30;99.90;;;;;;6615216;90;20175;-81
2023/04/26 09:30:38;;;;;;;1999.90;999.90;;;10.90;98.40;;;;;;6616236;89;20268;-82
2023/04/26 09:40:41;;;;;;;1999.90;999.90;;;10.80;97.80;;;;;;6606493;89;20185;-81
2023/04/26 09:50:46;;;;;;;1999.90;999.90;;;10.90;98.50;;;;;;6603317;89;20206;-81
2023/04/26 10:00:51;;;;;;;1999.90;999.90;;;11.20;99.90;;;;;;6603326;89;20664;-80
2023/04/26 10:10:53;;;;;;;1999.90;999.90;;;11.50;99.70;;;;;;6604296;90;20232;-80
2023/04/26 10:20:57;;;;;;;1999.90;999.90;;;11.70;99.40;;;;;;6613953;88;20698;-75
2023/04/26 10:31:00;;;;;;;1999.90;999.90;;;13.00;97.80;;;;;;6613848;88;20197;-75
2023/04/26 10:41:38;;;;;;;1999.90;999.90;;;13.40;97.40;;;;;;6611532;88;20233;-75
2023/04/26 10:51:39;;;;;;;1999.90;999.90;;;14.00;95.80;;;;;;6616595;88;20691;-80
2023/04/26 11:01:40;;;;;;;1999.90;999.90;;;14.00;95.00;;;;;;6609867;88;20299;-75
2023/04/26 11:11:52;;;;;;;1999.90;999.90;;;14.20;94.00;;;;;;6631656;88;20299;-75
2023/04/26 11:21:52;;;;;;;1999.90;999.90;;;14.30;94.10;;;;;;6713263;88;20182;-82
2023/04/26 11:31:55;;;;;;;1999.90;999.90;;;15.70;93.60;;;;;;6709103;88;20656;-80
2023/04/26 11:42:09;;;;;;;1999.90;999.90;;;16.40;92.00;;;;;;6709874;88;20236;-81
2023/04/26 11:52:10;;;;;;;1999.90;999.90;;;16.00;91.10;;;;;;6713413;88;20244;-82
2023/04/26 12:02:11;;;;;;;1999.90;999.90;;;15.00;91.90;;;;;;6712541;88;20272;-80
2023/04/26 12:12:11;;;;;;;1999.90;999.90;;;14.70;91.90;;;;;;6710288;88;20675;-80
2023/04/26 12:22:20;;;;;;;1999.90;999.90;;;15.20;90.80;;;;;;6705269;88;20231;-81
2023/04/26 12:32:21;;;;;;;1999.90;999.90;;;17.30;88.00;;;;;;6707494;88;20248;-80
2023/04/26 12:42:24;;;;;;;1999.90;999.90;;;16.70;86.60;;;;;;6707338;88;20202;-81
2023/04/26 12:52:25;;;;;;;1999.90;999.90;;;16.70;87.50;;;;;;6713553;88;20202;-80
2023/04/26 13:02:25;;;;;;;1999.90;999.90;;;17.30;87.30;;;;;;6707186;88;20208;-80
2023/04/26 13:12:26;;;;;;;1999.90;999.90;;;17.20;85.80;;;;;;6707218;88;20257;-80
2023/04/26 13:22:27;;;;;;;1999.90;999.90;;;16.90;85.60;;;;;;6703756;88;20716;-80
2023/04/26 13:32:28;;;;;;;1999.90;999.90;;;17.00;85.30;;;;;;6706639;88;20193;-81
2023/04/26 13:42:29;;;;;;;1999.90;999.90;;;18.00;85.70;;;;;;6705835;88;20660;-81
2023/04/26 13:52:30;;;;;;;1999.90;999.90;;;18.50;83.00;;;;;;6706260;88;20603;-80
2023/04/26 14:02:30;;;;;;;1999.90;999.90;;;18.90;82.50;;;;;;6707130;88;20233;-81
2023/04/26 14:12:31;;;;;;;1999.90;999.90;;;19.00;80.80;;;;;;6706966;88;20851;-82
2023/04/26 14:22:31;;;;;;;1999.90;999.90;;;18.40;81.10;;;;;;6707761;88;20222;-83
2023/04/26 14:32:32;;;;;;;1999.90;999.90;;;18.60;81.50;;;;;;6710466;88;20649;-81
2023/04/26 14:42:33;;;;;;;1999.90;999.90;;;18.60;81.40;;;;;;6711956;88;20210;-79
2023/04/26 14:52:34;;;;;;;1999.90;999.90;;;18.30;80.70;;;;;;6716652;88;20183;-82
2023/04/26 15:03:16;;;;;;;1999.90;999.90;;;18.30;81.00;;;;;;6741455;77;20613;-80
2023/04/26 15:13:16;;;;;;;1999.90;999.90;;;18.10;80.50;;;;;;6612847;89;20207;-79
2023/04/26 15:23:17;;;;;;;1999.90;999.90;;;16.70;81.90;;;;;;6612562;89;20247;-80
2023/04/26 15:33:17;;;;;;;1999.90;999.90;;;16.20;82.00;;;;;;6615924;89;20211;-80
2023/04/26 15:43:18;;;;;;;1999.90;999.90;;;16.00;82.40;;;;;;6621422;89;20673;-82
2023/04/26 15:53:20;;;;;;;1999.90;999.90;;;16.40;82.30;;;;;;6616532;89;20693;-80
2023/04/26 16:03:21;;;;;;;1999.90;999.90;;;16.50;81.90;;;;;;6613068;89;20197;-81
2023/04/26 16:13:21;;;;;;;1999.90;999.90;;;16.10;82.40;;;;;;6613300;89;20216;-81
2023/04/26 16:23:22;;;;;;;1999.90;999.90;;;15.80;82.30;;;;;;6617293;89;20183;-81
2023/04/26 16:33:22;;;;;;;1999.90;999.90;;;15.90;83.40;;;;;;6630902;89;20198;-82
2023/04/26 16:43:27;;;;;;;1999.90;999.90;;;15.90;81.70;;;;;;6634977;89;20703;-82
2023/04/26 16:53:29;;;;;;;1999.90;999.90;;;15.60;82.20;;;;;;6639708;88;20196;-81
2023/04/26 17:03:30;;;;;;;1999.90;999.90;;;15.10;82.30;;;;;;6644645;88;20756;-81
2023/04/26 17:13:32;;;;;;;1999.90;999.90;;;14.30;82.80;;;;;;6640764;89;20178;-81
2023/04/26 17:23:33;;;;;;;1999.90;999.90;;;13.70;85.00;;;;;;6642287;88;20170;-83
2023/04/26 17:33:35;;;;;;;1999.90;999.90;;;14.20;84.90;;;;;;6658881;88;20224;-85
2023/04/26 17:43:36;;;;;;;1999.90;999.90;;;14.80;83.80;;;;;;6642061;88;20170;-85
2023/04/26 18:03:40;;;;;;;1999.90;999.90;;;12.60;86.90;;;;;;6716852;88;20197;-83
2023/04/26 18:13:40;;;;;;;1999.90;999.90;;;12.10;87.40;;;;;;6716647;88;20199;-84
2023/04/26 18:23:41;;;;;;;1999.90;999.90;;;11.70;88.20;;;;;;6711649;88;20175;-82
2023/04/26 18:43:45;;;;;;;1999.90;999.90;;;11.00;89.10;;;;;;6727948;88;20226;-82
2023/04/26 18:53:45;;;;;;;1999.90;999.90;;;10.60;89.20;;;;;;6722970;88;20241;-83
2023/04/26 19:03:47;;;;;;;1999.90;999.90;;;10.50;89.30;;;;;;6723957;88;20284;-82
2023/04/26 19:13:47;;;;;;;1999.90;999.90;;;10.20;89.90;;;;;;6726163;88;20208;-82
2023/04/26 19:23:48;;;;;;;1999.90;999.90;;;10.10;90.70;;;;;;6726059;88;20277;-83
2023/04/26 19:33:48;;;;;;;1999.90;999.90;;;10.10;90.70;;;;;;6721902;88;20281;-82
2023/04/26 19:43:49;;;;;;;1999.90;999.90;;;10.00;91.10;;;;;;6722176;88;20700;-81
2023/04/26 19:53:50;;;;;;;1999.90;999.90;;;9.90;91.80;;;;;;6718740;88;20214;-81
2023/04/26 20:03:50;;;;;;;1999.90;999.90;;;9.90;92.00;;;;;;6723359;88;20317;-81
2023/04/26 20:13:51;;;;;;;1999.90;999.90;;;9.80;92.30;;;;;;6717905;88;20190;-81
2023/04/26 20:23:52;;;;;;;1999.90;999.90;;;9.70;92.80;;;;;;6718186;88;20223;-81
2023/04/26 20:33:52;;;;;;;1999.90;999.90;;;9.70;93.10;;;;;;6719179;88;20190;-82
2023/04/26 20:43:53;;;;;;;1999.90;999.90;;;9.60;93.80;;;;;;6717224;88;20502;-81
2023/04/26 20:53:54;;;;;;;1999.90;999.90;;;9.60;93.60;;;;;;6711209;88;20667;-81
2023/04/26 21:03:55;;;;;;;1999.90;999.90;;;9.50;93.30;;;;;;6714352;88;20260;-82
2023/04/26 21:14:24;;;;;;;1999.90;999.90;;;9.40;94.20;;;;;;6714587;88;20211;-81
2023/04/26 21:24:25;;;;;;;1999.90;999.90;;;9.30;94.50;;;;;;6713337;77;20178;-75
2023/04/26 21:34:26;;;;;;;1999.90;999.90;;;9.20;94.90;;;;;;6702675;88;20315;-76
2023/04/26 21:44:26;;;;;;;1999.90;999.90;;;9.20;95.50;;;;;;6691918;88;20208;-76
2023/04/26 21:54:27;;;;;;;1999.90;999.90;;;9.20;95.10;;;;;;6694156;88;20176;-77
2023/04/26 22:04:28;;;;;;;1999.90;999.90;;;9.20;95.30;;;;;;6689957;88;20206;-77
2023/04/26 22:14:28;;;;;;;1999.90;999.90;;;9.10;95.40;;;;;;6689054;88;20228;-76
2023/04/26 22:24:29;;;;;;;1999.90;999.90;;;9.00;95.60;;;;;;6698047;88;20288;-76
2023/04/26 22:34:30;;;;;;;1999.90;999.90;;;8.90;95.90;;;;;;6689305;88;20311;-76
2023/04/26 22:44:30;;;;;;;1999.90;999.90;;;8.80;96.80;;;;;;6692732;88;20216;-77
2023/04/26 22:54:31;;;;;;;1999.90;999.90;;;8.70;97.30;;;;;;6690202;88;20468;-75
2023/04/26 23:04:31;;;;;;;1999.90;999.90;;;8.40;97.60;;;;;;6694414;88;20815;-76
2023/04/26 23:14:32;;;;;;;1999.90;999.90;;;8.30;97.90;;;;;;6694988;88;20800;-77
2023/04/26 23:24:33;;;;;;;1999.90;999.90;;;8.20;98.70;;;;;;6696186;88;20370;-75
2023/04/26 23:34:33;;;;;;;1999.90;999.90;;;8.20;99.20;;;;;;6702012;88;20205;-77
2023/04/26 23:44:34;;;;;;;1999.90;999.90;;;8.10;99.70;;;;;;6693680;88;20250;-77
2023/04/26 23:54:35;;;;;;;1999.90;999.90;;;8.10;99.90;;;;;;6701323;88;20199;-76
